createdAt,value
2022-11-22T00:04:23.925Z,100463.41
2022-11-22T00:09:27.662Z,100443.09
2022-11-22T00:14:29.901Z,100420.97
2022-11-22T00:19:32.100Z,100419.31
2022-11-22T00:24:34.983Z,100446.59
2022-11-22T00:29:37.083Z,100478.81
2022-11-22T00:34:39.083Z,100510.75
2022-11-22T00:39:41.116Z,100549.53
2022-11-22T00:44:43.199Z,100528.53
2022-11-22T00:49:45.264Z,100519.13
2022-11-22T00:54:53.197Z,100541.75
2022-11-22T00:59:56.961Z,100543.75
2022-11-22T01:04:58.997Z,100557.03
2022-11-22T01:10:01.071Z,100578.00
2022-11-22T01:15:04.035Z,100576.03
2022-11-22T01:20:06.944Z,100569.56
2022-11-22T01:25:09.728Z,100564.25
2022-11-22T01:30:12.390Z,100564.53
2022-11-22T01:35:14.600Z,100560.91
2022-11-22T01:40:16.793Z,100581.16
2022-11-22T01:45:30.941Z,100579.22
2022-11-22T01:50:36.981Z,100588.88
2022-11-22T01:55:39.805Z,100636.88
2022-11-22T02:00:43.889Z,100712.69
2022-11-22T02:05:47.431Z,100710.69
2022-11-22T02:10:53.523Z,100669.50
2022-11-22T02:15:55.662Z,100667.69
2022-11-22T02:20:58.931Z,100645.88
2022-11-22T02:26:02.565Z,100619.13
2022-11-22T02:31:04.563Z,100632.59
2022-11-22T02:36:06.921Z,100633.28
2022-11-22T02:41:12.877Z,100644.06
2022-11-22T02:46:20.832Z,100627.09
2022-11-22T02:51:22.832Z,100627.94
2022-11-22T02:56:24.895Z,100641.97
2022-11-22T03:01:26.981Z,100691.38
2022-11-22T03:06:29.409Z,100735.72
2022-11-22T03:11:31.430Z,100733.91
2022-11-22T03:16:33.475Z,100739.06
2022-11-22T03:21:35.795Z,100742.69
2022-11-22T03:26:38.538Z,100733.06
2022-11-22T03:31:40.587Z,100726.91
2022-11-22T03:36:42.755Z,100744.53
2022-11-22T03:41:44.802Z,100741.88
2022-11-22T03:46:46.945Z,100729.28
2022-11-22T03:51:48.944Z,100727.22
2022-11-22T03:56:50.996Z,100727.22
2022-11-22T04:01:53.117Z,100735.78
2022-11-22T04:06:55.326Z,100741.81
2022-11-22T04:11:57.334Z,100755.34
2022-11-22T04:16:59.465Z,100737.72
2022-11-22T04:22:01.521Z,100754.38
2022-11-22T04:27:03.560Z,100740.38
2022-11-22T04:32:24.092Z,100751.50
2022-11-22T04:37:26.296Z,100791.50
2022-11-22T04:42:46.884Z,100770.84
2022-11-22T04:48:01.265Z,100846.53
2022-11-22T04:53:03.589Z,100850.16
2022-11-22T04:58:05.731Z,100841.44
2022-11-22T05:03:08.583Z,100840.88
2022-11-22T05:08:11.247Z,100867.56
2022-11-22T05:13:13.250Z,100811.53
2022-11-22T05:18:15.303Z,100828.28
2022-11-22T05:23:36.761Z,100813.44
2022-11-22T05:28:39.549Z,100813.13
2022-11-22T05:33:43.541Z,100818.53
2022-11-22T05:38:45.856Z,100815.03
2022-11-22T05:43:47.929Z,100834.38
2022-11-22T05:48:50.144Z,100824.31
2022-11-22T05:53:52.310Z,100875.09
2022-11-22T05:58:54.565Z,100860.69
2022-11-22T06:03:56.759Z,100896.34
2022-11-22T06:08:59.963Z,100881.47
2022-11-22T06:14:03.647Z,100896.34
2022-11-22T06:19:05.815Z,100928.38
2022-11-22T06:24:08.309Z,100938.16
2022-11-22T06:29:10.563Z,100928.38
2022-11-22T06:34:13.203Z,100947.34
2022-11-22T06:39:15.220Z,100953.00
2022-11-22T06:44:17.328Z,100986.59
2022-11-22T06:49:19.336Z,100972.31
2022-11-22T06:54:21.374Z,100980.78
2022-11-22T06:59:23.416Z,101015.47
2022-11-22T07:04:25.736Z,101011.97
2022-11-22T07:09:28.306Z,100983.69
2022-11-22T07:14:31.263Z,101001.22
2022-11-22T07:19:33.466Z,100985.03
2022-11-22T07:24:35.520Z,101002.78
2022-11-22T07:29:37.656Z,101008.34
2022-11-22T07:34:39.740Z,101034.09
2022-11-22T07:39:41.769Z,101051.09
2022-11-22T07:44:43.808Z,101042.91
2022-11-22T07:49:45.980Z,101076.59
2022-11-22T07:54:48.067Z,101080.13
2022-11-22T07:59:50.119Z,101064.16
2022-11-22T08:04:52.853Z,101083.72
2022-11-22T08:09:54.900Z,101086.28
2022-11-22T08:14:57.505Z,101073.00
2022-11-22T08:19:59.659Z,101080.97
2022-11-22T08:25:02.072Z,101088.09
2022-11-22T08:30:04.493Z,101102.09
2022-11-22T08:35:07.087Z,101107.75
2022-11-22T08:40:09.753Z,101115.63
2022-11-22T08:45:11.907Z,101118.03
2022-11-22T08:50:14.068Z,101115.50
2022-11-22T08:55:16.321Z,101103.03
2022-11-22T09:00:18.472Z,101133.97
2022-11-22T09:05:20.604Z,101130.34
2022-11-22T09:10:22.755Z,101097.97
2022-11-22T09:15:24.980Z,101126.00
2022-11-22T09:20:27.166Z,101137.13
2022-11-22T09:25:29.193Z,101136.63
2022-11-22T09:30:31.399Z,101137.59
2022-11-22T09:35:33.515Z,101158.84
2022-11-22T09:40:36.516Z,101159.84
2022-11-22T09:45:53.472Z,101155.59
2022-11-22T09:51:12.887Z,101154.66
2022-11-22T09:56:20.256Z,101165.28
2022-11-22T10:01:39.301Z,101156.34
2022-11-22T10:07:03.016Z,101168.66
2022-11-22T10:12:22.698Z,101147.28
2022-11-22T10:17:24.706Z,101155.50
2022-11-22T10:22:30.621Z,101152.09
2022-11-22T10:27:33.249Z,101147.75
2022-11-22T10:32:43.313Z,101141.56
2022-11-22T10:37:48.207Z,101166.47
2022-11-22T10:42:56.731Z,101153.06
2022-11-22T10:48:26.781Z,101153.06
2022-11-22T10:53:55.509Z,101191.97
2022-11-22T10:59:32.677Z,101173.47
2022-11-22T11:04:40.261Z,101159.97
2022-11-22T11:10:11.624Z,101143.91
2022-11-22T11:15:17.335Z,101140.72
2022-11-22T11:20:35.545Z,101145.72
2022-11-22T11:25:40.880Z,101127.69
2022-11-22T11:30:46.230Z,101122.00
2022-11-22T11:35:48.639Z,101122.97
2022-11-22T11:40:50.739Z,101136.41
2022-11-22T11:45:53.271Z,101129.25
2022-11-22T11:51:16.036Z,101137.22
2022-11-22T11:56:33.939Z,101145.94
2022-11-22T12:01:38.962Z,101149.81
2022-11-22T12:06:41.353Z,101162.00
2022-11-22T12:11:49.378Z,101151.50
2022-11-22T12:16:58.013Z,101143.38
2022-11-22T12:22:48.966Z,101125.88
2022-11-22T12:27:52.223Z,101135.41
2022-11-22T12:33:05.949Z,101104.00
2022-11-22T12:38:18.821Z,101099.41
2022-11-22T12:43:36.989Z,101087.56
2022-11-22T12:49:11.731Z,101073.44
2022-11-22T12:54:22.793Z,101052.19
2022-11-22T12:59:57.067Z,101055.84
2022-11-22T13:05:15.702Z,101038.88
2022-11-22T13:10:30.765Z,101046.88
2022-11-22T13:15:36.787Z,101043.38
2022-11-22T13:20:45.199Z,101049.19
2022-11-22T13:26:16.185Z,101057.50
2022-11-22T13:31:20.262Z,101050.38
2022-11-22T13:36:28.428Z,101107.88
2022-11-22T13:41:38.087Z,101069.13
2022-11-22T13:47:21.515Z,101057.75
2022-11-22T13:52:25.415Z,101078.28
2022-11-22T13:57:27.304Z,101057.00
2022-11-22T14:02:29.452Z,101060.03
2022-11-22T14:07:38.896Z,101048.56
2022-11-22T14:12:43.940Z,101039.03
2022-11-22T14:18:07.305Z,101014.28
2022-11-22T14:23:38.645Z,101052.81
2022-11-22T14:29:11.975Z,101055.47
2022-11-22T14:34:20.881Z,101089.28
2022-11-22T14:39:44.760Z,101028.25
2022-11-22T14:44:49.589Z,101022.94
2022-11-22T14:49:54.580Z,101043.38
2022-11-22T14:55:03.015Z,101020.06
2022-11-22T15:00:13.084Z,101043.72
2022-11-22T15:09:11.957Z,101026.09
2022-11-22T15:11:07.681Z,101022.47
2022-11-22T15:59:58.991Z,101048.19
2022-11-22T16:06:04.368Z,101072.25
2022-11-22T16:10:39.368Z,101046.53
2022-11-22T16:15:41.337Z,101044.69
2022-11-22T16:21:01.733Z,101064.41
2022-11-22T16:26:19.396Z,101052.91
2022-11-22T16:31:31.867Z,101045.91
2022-11-22T16:36:34.374Z,101046.88
2022-11-22T16:41:36.451Z,101046.03
2022-11-22T16:46:40.152Z,101083.22
2022-11-22T16:51:44.924Z,101090.00
2022-11-22T16:56:47.301Z,101087.19
2022-11-22T17:01:50.415Z,101115.47
2022-11-22T17:06:52.590Z,101092.66
2022-11-22T17:11:55.000Z,101072.59
2022-11-22T17:16:57.053Z,101079.72
2022-11-22T17:22:01.036Z,101077.69
2022-11-22T17:27:02.864Z,101081.41
2022-11-22T17:32:05.460Z,101043.13
2022-11-22T17:37:13.787Z,101059.44
2022-11-22T17:42:17.584Z,101046.03
2022-11-22T17:47:19.682Z,101060.16
2022-11-22T17:52:21.694Z,101068.00
2022-11-22T17:57:23.766Z,101065.34
2022-11-22T18:02:25.804Z,101092.03
2022-11-22T18:07:30.969Z,101074.06
2022-11-22T18:12:42.042Z,101064.63
2022-11-22T18:17:44.631Z,101064.50
2022-11-22T18:22:46.664Z,101072.47
2022-11-22T18:27:48.837Z,101058.22
2022-11-22T18:32:50.899Z,101067.91
2022-11-22T18:37:53.186Z,101061.13
2022-11-22T18:43:00.673Z,101065.13
2022-11-22T18:48:02.855Z,101109.09
2022-11-22T18:53:04.833Z,101057.00
2022-11-22T18:58:06.853Z,101063.91
2022-11-22T19:03:11.688Z,101096.66
2022-11-22T19:08:13.678Z,101083.47
2022-11-22T19:13:15.674Z,101082.50
2022-11-22T19:18:19.936Z,101077.19
2022-11-22T19:23:21.901Z,101117.81
2022-11-22T19:28:30.339Z,101101.00
2022-11-22T19:33:32.545Z,101113.31
2022-11-22T19:38:34.735Z,101067.31
2022-11-22T19:43:38.077Z,101060.41
2022-11-22T19:48:45.551Z,101065.47
2022-11-22T19:53:49.436Z,101074.53
2022-11-22T19:58:56.234Z,101056.78
2022-11-22T20:04:03.846Z,101051.09
2022-11-22T20:09:12.778Z,101039.63
2022-11-22T20:14:14.972Z,101062.59
2022-11-22T20:19:17.060Z,101065.34
2022-11-22T20:24:19.232Z,101062.09
2022-11-22T20:29:23.052Z,101064.88
2022-11-22T20:34:25.130Z,101055.09
2022-11-22T20:39:27.169Z,101052.56
2022-11-22T20:44:29.353Z,101059.34
2022-11-22T20:49:32.176Z,101063.66
2022-11-22T20:54:34.221Z,101072.47
2022-11-22T20:59:36.307Z,101057.75
2022-11-22T21:04:38.418Z,101074.44
2022-11-22T21:09:40.438Z,101042.78
2022-11-22T21:14:42.516Z,101045.19
2022-11-22T21:19:44.555Z,101050.50
2022-11-22T21:24:46.738Z,101036.38
2022-11-22T21:29:48.770Z,101041.56
2022-11-22T21:34:50.982Z,101036.22
2022-11-22T21:39:53.048Z,101049.53
2022-11-22T21:44:55.104Z,101045.06
2022-11-22T21:49:57.148Z,101038.06
2022-11-22T21:54:59.232Z,101047.72
2022-11-22T22:00:01.346Z,101021.75
2022-11-22T22:05:03.612Z,101019.09
2022-11-22T22:10:06.270Z,101018.47
2022-11-22T22:15:12.075Z,101003.63
2022-11-22T22:20:14.184Z,100997.59
2022-11-22T22:25:16.861Z,100980.81
2022-11-22T22:30:19.143Z,100993.13
2022-11-22T22:35:21.297Z,100993.25
2022-11-22T22:40:23.295Z,100993.25
2022-11-22T22:45:25.324Z,100982.59
2022-11-22T22:50:27.368Z,100979.00
2022-11-22T22:55:29.422Z,100974.41
2022-11-22T23:00:31.463Z,100981.28
2022-11-22T23:05:33.439Z,100990.09
2022-11-22T23:10:35.540Z,100976.09
2022-11-22T23:15:57.295Z,100979.00
2022-11-22T23:21:02.232Z,100988.53
2022-11-22T23:26:10.532Z,100989.50
2022-11-22T23:31:16.712Z,100984.19
2022-11-22T23:36:20.705Z,100981.53
2022-11-22T23:41:24.949Z,100975.25
2022-11-22T23:46:28.882Z,100979.72
2022-11-22T23:51:31.455Z,100956.78
2022-11-22T23:56:34.734Z,100971.38
